SEA weather

Seattle Tacoma International Airport
Seattle, Washington, United States

Public forecast

Using degrees Fahrenheit for public forecast. Weather courtesy of forecast.io.

Current aviation weather report (METAR) for Seattle Tacoma International Airport

Retrieved 2019/10/22 23:53 UTC (1 hour ago):

KSEA 222353Z 06006KT 7SM FEW009 OVC015 13/09 A3041 RMK AO2 SLP306 60010 T01280094 10139 20117 53000

Aviation forecast (TAF) for Seattle Tacoma International Airport

Retrieved 2019-10-23 00:36 UTC (23 minutes ago):

TAF KSEA 222335Z 2300/2406 07007KT P6SM OVC015 FM230300 05008KT P6SM OVC025 FM231000 05003KT P6SM SCT005 OVC010 FM231900 04005KT P6SM SCT015 OVC250 FM240300 35005KT P6SM SCT250